Ft Myer, Virginia
Current Conditions -  °F | °C
As of 2:52 AM on Sunday 26 Oct 2014 (Local Time) from KDCA Reporting Station
Few Clouds Few Clouds  
Wind Chill: 57°   Ceiling: Unl
Heat Index: 57°   Visibility: 10mi
Dew Point: 45°   Wind: 9mph
Humidity: 64%   Direction: 200°SSW
Pressure: 29.69"   Gusts: NA
Location:  38.8787°N, 77.0774°W
Report Text: KDCA 260652Z 20008KT 10SM FEW060 14/07 A2969 RMK AO2 SLP053 T01390072 $
Loading
Personal Weather Stations






























Interactive Weather Map
Tropical Storm Tracking
New forecast layout! Learn more

10-Day Weather Forecast

Advertisements
Track Severe Weather on mobile